Air Navigation Services of Czech Republic
Airport: LKMT Updated:  18.07.2019 17:01:27  UTC
 METAR LKMT 18.07. 17:00 ...
METAR LKMT 181700Z 05006KT CAVOK 24/08 Q1013 NOSIG RMK REG QNH 1011=
 TAF LKMT 18.07. 17:00 ...
TAF LKMT 181700Z 1818/2000 22005KT CAVOK      TEMPO 1910/1918 26012G24KT SHRA SCT055CB      PROB30 TEMPO 1911/1917 4000 TSRA SCT040CB=